Terminal Aerodrome Forecast
Issued by NWS

Home | Current Version | Previous Version | Text Only | Print | Product List | Glossary On
Versions: 1 2 3 4 5 6 7 8 9 10 11 12 13 14 15 16 17 18 19 20 21 22 23 24 25
000
FTUS44 KLZK 161131
TAFBPK
TAF
KBPK 161131Z 1612/1712 16005KT 6SM BR VCSH SCT040 BKN080
     FM161500 19009KT P6SM VCSH SCT030 BKN100
     FM161900 21009KT P6SM VCTS SCT040CB BKN250=

USA.gov is the U.S. government's official web portal to all federal, state and local government web resources and services.